EIKH weather

Kildare Aerodrome
Kilrush, County Kildare, Ireland

Public forecast

Using degrees Celsius for public forecast. Weather courtesy of forecast.io.

Closest aviation weather report (METAR) to Kildare Aerodrome

Closest report is Casement Air Base, 20.4 nm (37.8 km) NE. Retrieved 2020/07/07 17:00 UTC (43 minutes ago):

EIME 071700Z 27013KT 2000 -RA FEW005 BKN015 15/15 Q1013

Closest aviation forecast (TAF) to Kildare Aerodrome

Closest forecast is Dublin Airport, 30.1 nm (55.7 km) NE. Retrieved 2020/07/07 12:10 UTC (6 hours ago):

TAF EIDW 071100Z 0712/0812 14005KT 8000 -RADZ SCT008 BKN025 TEMPO 0712/0803 4000 RA BKN010 BECMG 0714/0716 VRB03KT PROB40 TEMPO 0718/0803 2000 BR BKN003 BECMG 0807/0809 03007KT 9000 BKN015